createdAt,value
2022-08-07T00:00:26.921Z,21.83
2022-08-07T00:02:58.010Z,17.05
2022-08-07T00:05:26.569Z,19.40
2022-08-07T00:07:58.245Z,17.95
2022-08-07T00:10:30.992Z,17.83
2022-08-07T00:13:09.734Z,17.92
2022-08-07T00:15:51.512Z,17.63
2022-08-07T00:18:23.857Z,18.70
2022-08-07T00:21:01.395Z,18.85
2022-08-07T00:23:31.015Z,16.30
2022-08-07T00:26:06.852Z,17.58
2022-08-07T00:28:45.725Z,16.88
2022-08-07T00:31:21.398Z,15.23
2022-08-07T00:33:50.145Z,18.45
2022-08-07T00:36:17.634Z,17.50
2022-08-07T00:38:45.136Z,19.25
2022-08-07T00:41:14.976Z,17.10
2022-08-07T00:43:59.418Z,20.13
2022-08-07T00:46:33.127Z,17.42
2022-08-07T00:49:03.348Z,18.50
2022-08-07T00:51:56.895Z,20.50
2022-08-07T00:54:19.764Z,17.58
2022-08-07T00:56:49.840Z,17.92
2022-08-07T00:59:20.232Z,18.60
2022-08-07T01:02:03.004Z,19.08
2022-08-07T01:04:35.511Z,17.38
2022-08-07T01:07:11.022Z,17.58
2022-08-07T01:10:06.372Z,17.55
2022-08-07T01:12:30.221Z,16.73
2022-08-07T01:15:03.735Z,20.58
2022-08-07T01:17:33.348Z,19.35
2022-08-07T01:20:10.359Z,21.25
2022-08-07T01:23:00.858Z,18.45
2022-08-07T01:25:54.613Z,18.85
2022-08-07T01:28:23.064Z,18.52
2022-08-07T01:30:56.066Z,18.00
2022-08-07T01:33:30.162Z,18.48
2022-08-07T01:36:16.775Z,18.35
2022-08-07T01:38:46.481Z,14.95
2022-08-07T01:41:26.368Z,15.73
2022-08-07T01:43:59.305Z,17.48
2022-08-07T01:46:31.535Z,21.13
2022-08-07T01:48:59.993Z,14.85
2022-08-07T01:52:03.503Z,18.10
2022-08-07T01:54:36.392Z,14.85
2022-08-07T01:57:24.738Z,18.17
2022-08-07T02:00:13.690Z,17.23
2022-08-07T02:03:19.159Z,15.70
2022-08-07T02:06:30.768Z,16.73
2022-08-07T02:08:54.365Z,16.05
2022-08-07T02:11:30.922Z,16.65
2022-08-07T02:14:35.774Z,18.00
2022-08-07T02:17:03.735Z,17.75
2022-08-07T02:20:07.525Z,18.95
2022-08-07T02:22:25.950Z,18.55
2022-08-07T02:24:56.332Z,18.75
2022-08-07T02:27:26.442Z,17.42
2022-08-07T02:30:07.165Z,18.40
2022-08-07T02:32:39.491Z,20.15
2022-08-07T02:36:30.864Z,19.35
2022-08-07T02:38:18.291Z,16.95
2022-08-07T02:40:55.526Z,20.98
2022-08-07T02:46:00.576Z,17.67
2022-08-07T02:48:32.592Z,16.02
2022-08-07T02:51:28.830Z,14.38
2022-08-07T02:54:03.761Z,17.60
2022-08-07T02:56:34.394Z,18.40
2022-08-07T02:59:06.226Z,16.05
2022-08-07T03:01:39.992Z,18.17
2022-08-07T03:04:14.800Z,15.60
2022-08-07T03:06:48.262Z,14.75
2022-08-07T03:09:43.233Z,14.27
2022-08-07T03:12:21.604Z,14.15
2022-08-07T03:14:56.513Z,14.38
2022-08-07T03:17:25.414Z,12.82
2022-08-07T03:19:55.786Z,14.60
2022-08-07T03:22:30.182Z,12.48
2022-08-07T03:25:00.424Z,12.82
2022-08-07T03:28:09.012Z,11.93
2022-08-07T03:30:24.290Z,11.82
2022-08-07T03:32:58.639Z,10.70
2022-08-07T03:35:43.610Z,12.60
2022-08-07T03:38:21.174Z,12.07
2022-08-07T03:40:57.622Z,10.75
2022-08-07T03:43:32.444Z,11.75
2022-08-07T03:46:03.867Z,10.38
2022-08-07T03:48:45.537Z,12.23
2022-08-07T03:51:47.941Z,9.03
2022-08-07T03:58:34.862Z,11.35
2022-08-07T04:00:01.858Z,10.13
2022-08-07T04:02:32.523Z,10.85
2022-08-07T04:05:00.275Z,11.02
2022-08-07T04:07:36.220Z,11.20
2022-08-07T04:10:15.749Z,10.80
2022-08-07T04:12:49.524Z,8.38
2022-08-07T04:15:19.169Z,8.95
2022-08-07T04:18:57.425Z,8.13
2022-08-07T04:20:35.440Z,7.70
2022-08-07T04:23:06.210Z,7.00
2022-08-07T04:25:40.968Z,6.72
2022-08-07T04:28:13.303Z,8.05
2022-08-07T04:30:55.101Z,7.82
2022-08-07T04:33:29.066Z,9.27
2022-08-07T04:35:58.877Z,6.43
2022-08-07T04:38:29.307Z,9.10
2022-08-07T04:40:58.722Z,7.93
2022-08-07T04:44:10.604Z,6.45
2022-08-07T04:47:04.338Z,6.18
2022-08-07T04:49:57.720Z,6.20
2022-08-07T04:52:40.382Z,5.00
2022-08-07T04:58:31.499Z,5.85
2022-08-07T05:01:30.288Z,8.98
2022-08-07T05:04:18.016Z,7.93
2022-08-07T05:07:20.292Z,6.88
2022-08-07T05:10:01.294Z,6.97
2022-08-07T05:14:45.705Z,5.25
2022-08-07T05:15:53.918Z,6.18
2022-08-07T05:18:37.033Z,4.90
2022-08-07T05:21:10.064Z,4.55
2022-08-07T05:23:52.352Z,6.22
2022-08-07T05:26:23.717Z,4.97
2022-08-07T05:29:04.608Z,5.28
2022-08-07T05:31:38.908Z,4.65
2022-08-07T05:34:16.214Z,5.88
2022-08-07T05:36:52.967Z,7.05
2022-08-07T05:40:06.773Z,4.25
2022-08-07T05:42:33.287Z,4.07
2022-08-07T05:45:14.424Z,4.55
2022-08-07T05:48:01.090Z,3.50
2022-08-07T05:50:39.336Z,6.38
2022-08-07T05:54:09.508Z,4.63
2022-08-07T05:56:03.263Z,4.97
2022-08-07T05:58:40.941Z,4.80
2022-08-07T06:01:18.701Z,4.45
2022-08-07T06:03:58.827Z,3.92
2022-08-07T06:06:35.762Z,3.92
2022-08-07T06:09:06.889Z,3.22
2022-08-07T06:11:39.951Z,5.40
2022-08-07T06:14:12.047Z,3.05
2022-08-07T06:16:56.408Z,2.80
2022-08-07T06:19:52.391Z,5.07
2022-08-07T06:22:24.027Z,3.42
2022-08-07T06:25:10.305Z,2.35
2022-08-07T06:28:00.007Z,3.40
2022-08-07T06:30:36.115Z,3.72
2022-08-07T06:33:16.129Z,3.95
2022-08-07T06:36:06.264Z,2.88
2022-08-07T06:38:35.167Z,4.32
2022-08-07T06:41:13.134Z,7.25
2022-08-07T06:43:59.406Z,3.67
2022-08-07T06:46:35.510Z,3.15
2022-08-07T06:49:05.638Z,2.42
2022-08-07T06:51:49.540Z,2.90
2022-08-07T06:55:32.194Z,4.22
2022-08-07T06:57:13.829Z,2.92
2022-08-07T07:00:12.200Z,2.75
2022-08-07T07:02:48.568Z,2.53
2022-08-07T07:06:03.730Z,5.25
2022-08-07T07:08:12.289Z,4.45
2022-08-07T07:10:47.494Z,3.80
2022-08-07T07:13:56.727Z,3.45
2022-08-07T07:16:22.390Z,4.47
2022-08-07T07:19:34.123Z,3.67
2022-08-07T07:22:04.812Z,2.92
2022-08-07T07:24:43.148Z,2.60
2022-08-07T07:27:28.011Z,3.10
2022-08-07T07:30:09.814Z,3.55
2022-08-07T07:32:42.667Z,3.97
2022-08-07T07:35:12.661Z,4.30
2022-08-07T07:37:56.169Z,4.93
2022-08-07T07:40:32.548Z,4.75
2022-08-07T07:43:15.168Z,5.90
2022-08-07T07:46:50.447Z,4.18
2022-08-07T07:51:08.032Z,2.88
2022-08-07T07:53:48.163Z,3.30
2022-08-07T07:56:30.103Z,2.95
2022-08-07T07:59:05.862Z,3.95
2022-08-07T08:02:02.947Z,3.05
2022-08-07T08:04:27.786Z,4.05
2022-08-07T08:06:56.401Z,2.45
2022-08-07T08:09:30.020Z,5.97
2022-08-07T08:12:02.413Z,4.53
2022-08-07T08:14:34.508Z,3.75
2022-08-07T08:17:55.497Z,2.17
2022-08-07T08:20:17.859Z,2.47
2022-08-07T08:23:12.286Z,3.40
2022-08-07T08:26:07.025Z,2.92
2022-08-07T08:28:43.472Z,3.75
2022-08-07T08:31:22.963Z,3.83
2022-08-07T08:34:12.407Z,3.35
2022-08-07T08:36:41.190Z,3.33
2022-08-07T08:39:15.361Z,3.13
2022-08-07T08:42:06.455Z,3.95
2022-08-07T08:45:04.310Z,3.20
2022-08-07T08:47:47.284Z,4.03
2022-08-07T08:50:35.242Z,4.07
2022-08-07T08:53:30.739Z,3.00
2022-08-07T08:56:03.355Z,5.25
2022-08-07T08:58:40.879Z,4.35
2022-08-07T09:01:30.028Z,3.55
2022-08-07T09:04:28.656Z,4.97
2022-08-07T09:07:04.059Z,4.65
2022-08-07T09:09:47.380Z,3.67
2022-08-07T09:12:53.479Z,3.05
2022-08-07T09:16:23.468Z,4.05
2022-08-07T09:18:36.867Z,4.05
2022-08-07T09:22:09.948Z,3.13
2022-08-07T09:28:00.585Z,2.72
2022-08-07T09:31:08.569Z,4.15
2022-08-07T09:33:57.323Z,4.68
2022-08-07T09:36:49.812Z,4.68
2022-08-07T09:39:54.869Z,3.13
2022-08-07T09:42:41.135Z,4.18
2022-08-07T09:47:25.943Z,4.78
2022-08-07T09:48:30.148Z,4.18
2022-08-07T09:51:04.189Z,4.53
2022-08-07T09:53:50.118Z,6.00
2022-08-07T09:56:53.929Z,4.30
2022-08-07T10:00:01.007Z,4.65
2022-08-07T10:04:05.372Z,3.95
2022-08-07T10:06:42.679Z,4.50
2022-08-07T10:09:59.088Z,4.78
2022-08-07T10:13:03.619Z,3.95
2022-08-07T10:15:49.192Z,5.35
2022-08-07T10:18:20.524Z,4.80
2022-08-07T10:21:50.567Z,5.47
2022-08-07T10:24:10.162Z,5.32
2022-08-07T10:26:54.458Z,4.32
2022-08-07T10:29:43.338Z,5.53
2022-08-07T10:32:52.849Z,4.97
2022-08-07T10:35:55.159Z,6.00
2022-08-07T10:38:41.967Z,5.03
2022-08-07T10:41:53.812Z,4.88
2022-08-07T10:45:00.085Z,5.30
2022-08-07T10:47:52.797Z,5.73
2022-08-07T10:50:26.605Z,7.13
2022-08-07T10:53:22.587Z,7.13
2022-08-07T10:56:21.035Z,4.85
2022-08-07T10:59:24.341Z,6.03
2022-08-07T11:02:12.526Z,6.85
2022-08-07T11:04:58.316Z,5.35
2022-08-07T11:07:59.609Z,5.80
2022-08-07T11:10:41.064Z,5.05
2022-08-07T11:14:42.449Z,4.55
2022-08-07T11:16:19.546Z,5.60
2022-08-07T11:18:54.723Z,4.57
2022-08-07T11:21:42.966Z,4.45
2022-08-07T11:24:13.454Z,4.82
2022-08-07T11:27:01.218Z,6.68
2022-08-07T11:30:18.673Z,5.13
2022-08-07T11:32:46.520Z,6.10
2022-08-07T11:35:26.820Z,8.85
2022-08-07T11:38:42.769Z,8.38
2022-08-07T11:41:59.995Z,6.15
2022-08-07T11:44:37.925Z,5.60
2022-08-07T11:47:56.238Z,10.27
2022-08-07T11:50:57.298Z,7.00
2022-08-07T11:53:25.523Z,7.18
2022-08-07T11:56:27.287Z,7.15
2022-08-07T12:00:11.262Z,7.93
2022-08-07T12:02:34.337Z,5.53
2022-08-07T12:05:47.328Z,5.60
2022-08-07T12:08:31.813Z,8.40
2022-08-07T12:11:22.878Z,8.27
2022-08-07T12:14:02.096Z,8.63
2022-08-07T12:16:34.554Z,6.03
2022-08-07T12:19:21.640Z,6.03
2022-08-07T12:22:39.467Z,7.55
2022-08-07T12:26:05.351Z,7.68
2022-08-07T12:28:53.136Z,5.95
2022-08-07T12:32:01.645Z,7.40
2022-08-07T12:34:39.113Z,8.55
2022-08-07T12:37:16.440Z,9.32
2022-08-07T12:39:52.703Z,6.43
2022-08-07T12:42:27.628Z,9.88
2022-08-07T12:45:05.711Z,7.75
2022-08-07T12:47:56.059Z,6.78
2022-08-07T12:50:55.974Z,6.88
2022-08-07T12:54:37.479Z,7.50
2022-08-07T12:56:51.492Z,6.40
2022-08-07T12:59:53.913Z,6.35
2022-08-07T13:02:42.298Z,6.38
2022-08-07T13:06:03.087Z,9.18
2022-08-07T13:08:57.833Z,6.88
2022-08-07T13:12:03.544Z,7.28
2022-08-07T13:14:52.915Z,7.88
2022-08-07T13:17:39.943Z,10.05
2022-08-07T13:20:46.701Z,7.05
2022-08-07T13:24:00.661Z,8.13
2022-08-07T13:26:26.497Z,10.07
2022-08-07T13:29:04.436Z,8.77
2022-08-07T13:31:46.283Z,8.27
2022-08-07T13:35:12.849Z,8.13
2022-08-07T13:38:02.873Z,8.88
2022-08-07T13:41:17.106Z,14.05
2022-08-07T13:43:52.542Z,8.95
2022-08-07T13:46:33.360Z,9.68
2022-08-07T13:49:04.405Z,12.10
2022-08-07T13:52:05.294Z,9.68
2022-08-07T13:54:33.412Z,12.82
2022-08-07T13:57:05.108Z,11.10
2022-08-07T13:59:39.654Z,12.95
2022-08-07T14:02:13.105Z,12.57
2022-08-07T14:05:20.920Z,13.57
2022-08-07T14:07:59.672Z,12.90
2022-08-07T14:10:42.155Z,10.85
2022-08-07T14:13:18.015Z,14.85
2022-08-07T14:15:56.851Z,13.85
2022-08-07T14:18:39.015Z,13.73
2022-08-07T14:22:04.181Z,18.08
2022-08-07T14:24:27.152Z,14.35
2022-08-07T14:27:00.328Z,16.05
2022-08-07T14:30:05.759Z,13.73
2022-08-07T14:32:24.906Z,14.27
2022-08-07T14:34:55.487Z,14.43
2022-08-07T14:37:36.435Z,15.32
2022-08-07T14:45:59.763Z,29.02
2022-08-07T14:48:37.493Z,17.27
2022-08-07T14:54:30.129Z,14.35
2022-08-07T14:56:50.695Z,13.07
2022-08-07T15:00:04.588Z,15.13
2022-08-07T15:02:31.777Z,14.67
2022-08-07T15:05:03.703Z,15.77
2022-08-07T15:07:47.615Z,13.57
2022-08-07T15:10:25.100Z,16.25
2022-08-07T15:13:06.276Z,16.20
2022-08-07T15:15:53.684Z,13.50
2022-08-07T15:18:33.816Z,13.00
2022-08-07T15:21:44.888Z,15.40
2022-08-07T15:25:15.650Z,15.55
2022-08-07T15:26:57.838Z,15.73
2022-08-07T15:30:06.525Z,15.50
2022-08-07T15:32:39.021Z,13.85
2022-08-07T15:35:16.863Z,14.48
2022-08-07T15:38:17.829Z,14.75
2022-08-07T15:41:00.144Z,16.25
2022-08-07T15:43:53.028Z,15.65
2022-08-07T15:46:31.699Z,14.45
2022-08-07T15:49:19.508Z,14.52
2022-08-07T15:54:39.718Z,15.30
2022-08-07T15:57:28.358Z,13.23
2022-08-07T16:00:04.306Z,18.10
2022-08-07T16:05:15.204Z,15.38
2022-08-07T16:08:30.265Z,15.48
2022-08-07T16:10:41.773Z,16.98
2022-08-07T16:13:58.524Z,16.98
2022-08-07T16:16:49.373Z,16.38
2022-08-07T16:19:59.822Z,16.92
2022-08-07T16:22:36.345Z,16.73
2022-08-07T16:25:52.414Z,16.05
2022-08-07T16:29:18.882Z,17.00
2022-08-07T16:31:51.239Z,16.52
2022-08-07T16:34:23.847Z,17.05
2022-08-07T16:38:03.036Z,15.48
2022-08-07T16:40:28.959Z,15.13
2022-08-07T16:44:03.674Z,21.00
2022-08-07T16:50:28.507Z,15.52
2022-08-07T16:54:02.907Z,20.23
2022-08-07T16:56:32.319Z,17.92
2022-08-07T16:59:18.927Z,16.63
2022-08-07T17:02:05.595Z,14.45
2022-08-07T17:06:01.577Z,17.70
2022-08-07T17:08:02.099Z,18.80
2022-08-07T17:10:54.734Z,17.23
2022-08-07T17:14:19.529Z,17.27
2022-08-07T17:16:58.070Z,18.83
2022-08-07T17:20:03.061Z,18.63
2022-08-07T17:22:56.728Z,17.60
2022-08-07T17:25:47.184Z,19.20
2022-08-07T17:28:31.559Z,17.23
2022-08-07T17:31:16.675Z,17.52
2022-08-07T17:34:32.813Z,18.83
2022-08-07T17:37:08.936Z,17.05
2022-08-07T17:40:03.412Z,19.15
2022-08-07T17:42:36.245Z,23.95
2022-08-07T17:45:57.464Z,19.30
2022-08-07T17:48:34.485Z,20.30
2022-08-07T17:51:23.089Z,20.13
2022-08-07T17:54:39.632Z,18.73
2022-08-07T17:57:21.493Z,21.45
2022-08-07T18:00:00.550Z,22.27
2022-08-07T18:02:36.827Z,21.30
2022-08-07T18:05:21.974Z,17.35
2022-08-07T18:08:03.734Z,19.20
2022-08-07T18:11:53.660Z,18.10
2022-08-07T18:13:48.730Z,16.27
2022-08-07T18:16:37.166Z,19.23
2022-08-07T18:21:10.312Z,20.20
2022-08-07T18:22:49.097Z,19.40
2022-08-07T18:25:40.737Z,15.48
2022-08-07T18:28:35.283Z,17.30
2022-08-07T18:31:50.363Z,17.77
2022-08-07T18:34:40.794Z,16.73
2022-08-07T18:38:56.625Z,16.52
2022-08-07T18:41:07.963Z,16.08
2022-08-07T18:43:57.575Z,17.65
2022-08-07T18:46:51.581Z,20.63
2022-08-07T18:50:31.092Z,21.73
2022-08-07T18:53:12.578Z,20.30
2022-08-07T18:56:15.033Z,22.17
2022-08-07T18:58:51.633Z,25.08
2022-08-07T19:02:20.166Z,29.83
2022-08-07T19:04:39.784Z,26.80
2022-08-07T19:07:52.972Z,22.02
2022-08-07T19:10:49.968Z,27.42
2022-08-07T19:13:44.344Z,28.08
2022-08-07T19:17:06.041Z,26.42
2022-08-07T19:19:48.832Z,27.98
2022-08-07T19:22:32.348Z,30.80
2022-08-07T19:25:06.778Z,33.80
2022-08-07T19:28:29.593Z,35.88
2022-08-07T19:31:00.216Z,31.42
2022-08-07T19:33:33.625Z,26.40
2022-08-07T19:36:04.368Z,24.77
2022-08-07T19:38:52.559Z,24.92
2022-08-07T19:41:44.345Z,29.20
2022-08-07T19:44:21.275Z,23.00
2022-08-07T19:46:58.018Z,24.42
2022-08-07T19:49:57.368Z,25.35
2022-08-07T19:52:27.790Z,26.58
2022-08-07T19:54:58.404Z,29.98
2022-08-07T19:58:01.299Z,24.63
2022-08-07T20:00:39.303Z,27.77
2022-08-07T20:03:33.554Z,23.77
2022-08-07T20:06:06.126Z,28.55
2022-08-07T20:08:37.978Z,33.17
2022-08-07T20:11:10.724Z,33.88
2022-08-07T20:13:56.638Z,31.88
2022-08-07T20:16:35.125Z,33.42
2022-08-07T20:19:11.111Z,35.38
2022-08-07T20:21:47.181Z,27.25
2022-08-07T20:24:22.130Z,30.05
2022-08-07T20:26:54.773Z,33.83
2022-08-07T20:29:49.234Z,27.30
2022-08-07T20:32:39.779Z,29.48
2022-08-07T20:35:12.955Z,27.67
2022-08-07T20:37:59.789Z,31.80
2022-08-07T20:40:37.648Z,25.52
2022-08-07T20:43:19.520Z,28.92
2022-08-07T20:46:28.848Z,26.33
2022-08-07T20:49:54.694Z,33.08
2022-08-07T20:51:35.945Z,30.30
2022-08-07T20:54:15.160Z,27.40
2022-08-07T20:57:04.892Z,28.67
2022-08-07T21:00:07.319Z,30.83
2022-08-07T21:02:53.836Z,29.58
2022-08-07T21:05:47.841Z,32.65
2022-08-07T21:08:15.519Z,30.08
2022-08-07T21:10:44.963Z,28.85
2022-08-07T21:13:19.393Z,33.03
2022-08-07T21:16:00.152Z,26.67
2022-08-07T21:18:33.929Z,28.23
2022-08-07T21:23:50.423Z,26.52
2022-08-07T21:26:27.414Z,25.90
2022-08-07T21:29:06.348Z,24.85
2022-08-07T21:32:47.763Z,25.52
2022-08-07T21:34:59.520Z,26.58
2022-08-07T21:37:58.346Z,25.33
2022-08-07T21:40:59.255Z,29.90
2022-08-07T21:44:28.362Z,23.70
2022-08-07T21:47:03.277Z,27.15
2022-08-07T21:50:01.057Z,28.08
2022-08-07T21:52:43.953Z,31.33
2022-08-07T21:55:28.161Z,26.35
2022-08-07T21:58:08.413Z,30.60
2022-08-07T22:00:47.581Z,25.70
2022-08-07T22:03:42.921Z,27.25
2022-08-07T22:06:30.285Z,29.15
2022-08-07T22:09:31.504Z,23.75
2022-08-07T22:12:16.152Z,27.63
2022-08-07T22:14:59.838Z,26.45
2022-08-07T22:17:36.107Z,27.15
2022-08-07T22:20:30.413Z,30.85
2022-08-07T22:23:21.519Z,28.88
2022-08-07T22:26:12.132Z,30.10
2022-08-07T22:29:09.017Z,28.67
2022-08-07T22:34:53.122Z,23.80
2022-08-07T22:38:01.967Z,27.13
2022-08-07T22:40:45.011Z,31.38
2022-08-07T22:43:18.087Z,26.65
2022-08-07T22:46:40.725Z,28.85
2022-08-07T22:49:19.577Z,28.75
2022-08-07T22:52:07.986Z,28.60
2022-08-07T22:55:23.139Z,26.45
2022-08-07T22:58:25.013Z,24.58
2022-08-07T23:01:07.264Z,26.48
2022-08-07T23:04:00.221Z,26.20
2022-08-07T23:07:01.563Z,24.10
2022-08-07T23:10:04.036Z,23.38
2022-08-07T23:12:39.288Z,27.58
2022-08-07T23:16:04.253Z,28.15
2022-08-07T23:18:32.048Z,25.65
2022-08-07T23:21:29.872Z,25.17
2022-08-07T23:24:06.329Z,20.05
2022-08-07T23:27:07.883Z,25.85
2022-08-07T23:30:38.934Z,23.92
2022-08-07T23:34:35.023Z,22.10
2022-08-07T23:36:07.080Z,20.67
2022-08-07T23:38:47.100Z,21.80
2022-08-07T23:42:01.398Z,22.55
2022-08-07T23:44:49.378Z,23.25
2022-08-07T23:47:46.422Z,24.75
2022-08-07T23:50:34.933Z,23.42
2022-08-07T23:53:15.311Z,22.60
2022-08-07T23:56:11.765Z,20.27
2022-08-07T23:59:10.567Z,22.60
